sensor_id;sensor_type;location;lat;lon;timestamp;pressure;altitude;pressure_sealevel;temperature;humidity
73941;BME280;62294;48.554;10.202;2023-06-14T00:02:20;93475.03;;;8.54;100.00
73941;BME280;62294;48.554;10.202;2023-06-14T00:04:47;93453.06;;;8.54;100.00
73941;BME280;62294;48.554;10.202;2023-06-14T00:07:14;93427.38;;;8.65;100.00
73941;BME280;62294;48.554;10.202;2023-06-14T00:09:43;93425.78;;;8.53;100.00
73941;BME280;62294;48.554;10.202;2023-06-14T00:12:09;93418.16;;;8.42;100.00
73941;BME280;62294;48.554;10.202;2023-06-14T00:14:36;93397.81;;;8.32;100.00
73941;BME280;62294;48.554;10.202;2023-06-14T00:17:03;93373.19;;;8.37;100.00
73941;BME280;62294;48.554;10.202;2023-06-14T00:19:30;93354.41;;;8.33;100.00
73941;BME280;62294;48.554;10.202;2023-06-14T00:21:59;93321.03;;;8.37;100.00
73941;BME280;62294;48.554;10.202;2023-06-14T00:24:26;93306.78;;;8.28;100.00
73941;BME280;62294;48.554;10.202;2023-06-14T00:26:52;93284.28;;;8.31;100.00
73941;BME280;62294;48.554;10.202;2023-06-14T00:29:19;93277.97;;;8.27;100.00
73941;BME280;62294;48.554;10.202;2023-06-14T00:31:45;93257.88;;;8.26;100.00
73941;BME280;62294;48.554;10.202;2023-06-14T00:34:12;93241.41;;;8.24;100.00
73941;BME280;62294;48.554;10.202;2023-06-14T00:36:39;93232.75;;;8.13;100.00
73941;BME280;62294;48.554;10.202;2023-06-14T00:39:05;93219.25;;;8.15;100.00
73941;BME280;62294;48.554;10.202;2023-06-14T00:41:32;93220.66;;;8.02;100.00
73941;BME280;62294;48.554;10.202;2023-06-14T00:43:58;93204.50;;;7.99;100.00
73941;BME280;62294;48.554;10.202;2023-06-14T00:46:26;93189.47;;;7.94;100.00
73941;BME280;62294;48.554;10.202;2023-06-14T00:48:53;93171.44;;;8.01;100.00
73941;BME280;62294;48.554;10.202;2023-06-14T00:51:22;93162.97;;;8.04;100.00
73941;BME280;62294;48.554;10.202;2023-06-14T00:53:48;93152.94;;;8.01;100.00
73941;BME280;62294;48.554;10.202;2023-06-14T00:56:15;93150.59;;;7.95;100.00
73941;BME280;62294;48.554;10.202;2023-06-14T00:58:42;93148.53;;;7.86;100.00
73941;BME280;62294;48.554;10.202;2023-06-14T01:01:09;93157.28;;;7.82;100.00
73941;BME280;62294;48.554;10.202;2023-06-14T01:03:36;93158.88;;;7.78;100.00
73941;BME280;62294;48.554;10.202;2023-06-14T01:06:23;93145.91;;;7.76;100.00
73941;BME280;62294;48.554;10.202;2023-06-14T01:11:50;93111.84;;;7.75;100.00
73941;BME280;62294;48.554;10.202;2023-06-14T01:14:20;93105.53;;;7.66;100.00
73941;BME280;62294;48.554;10.202;2023-06-14T01:16:48;93096.59;;;7.62;100.00
73941;BME280;62294;48.554;10.202;2023-06-14T01:19:20;93093.38;;;7.65;100.00
73941;BME280;62294;48.554;10.202;2023-06-14T01:21:49;93082.88;;;7.50;100.00
73941;BME280;62294;48.554;10.202;2023-06-14T01:24:17;93021.09;;;7.46;100.00
73941;BME280;62294;48.554;10.202;2023-06-14T01:26:46;92523.94;;;7.57;100.00
73941;BME280;62294;48.554;10.202;2023-06-14T01:29:18;92500.00;;;7.49;100.00
73941;BME280;62294;48.554;10.202;2023-06-14T01:31:45;92483.28;;;7.35;100.00
73941;BME280;62294;48.554;10.202;2023-06-14T01:34:12;92445.25;;;7.36;100.00
73941;BME280;62294;48.554;10.202;2023-06-14T01:36:41;92428.91;;;7.34;100.00
73941;BME280;62294;48.554;10.202;2023-06-14T01:39:08;92401.50;;;7.30;100.00
73941;BME280;62294;48.554;10.202;2023-06-14T01:41:35;92341.31;;;7.27;100.00
73941;BME280;62294;48.554;10.202;2023-06-14T01:44:03;92318.75;;;7.34;100.00
73941;BME280;62294;48.554;10.202;2023-06-14T01:46:30;92298.97;;;7.32;100.00
73941;BME280;62294;48.554;10.202;2023-06-14T01:48:57;92284.88;;;7.23;100.00
73941;BME280;62294;48.554;10.202;2023-06-14T01:51:25;92258.75;;;7.35;100.00
73941;BME280;62294;48.554;10.202;2023-06-14T01:53:51;92254.00;;;7.37;100.00
73941;BME280;62294;48.554;10.202;2023-06-14T01:56:18;92235.19;;;7.38;100.00
73941;BME280;62294;48.554;10.202;2023-06-14T01:58:45;92226.00;;;7.36;100.00
73941;BME280;62294;48.554;10.202;2023-06-14T02:01:12;92210.72;;;7.33;100.00
73941;BME280;62294;48.554;10.202;2023-06-14T02:03:39;92208.78;;;7.25;100.00
73941;BME280;62294;48.554;10.202;2023-06-14T02:06:05;92203.78;;;7.23;100.00
73941;BME280;62294;48.554;10.202;2023-06-14T02:08:32;92209.72;;;7.15;100.00
73941;BME280;62294;48.554;10.202;2023-06-14T02:10:59;92204.25;;;7.11;100.00
73941;BME280;62294;48.554;10.202;2023-06-14T02:13:26;92198.19;;;7.11;100.00
73941;BME280;62294;48.554;10.202;2023-06-14T02:15:52;92187.81;;;7.14;100.00
73941;BME280;62294;48.554;10.202;2023-06-14T02:18:21;92193.84;;;7.01;100.00
73941;BME280;62294;48.554;10.202;2023-06-14T02:20:48;92184.88;;;7.02;100.00
73941;BME280;62294;48.554;10.202;2023-06-14T02:23:14;92173.03;;;7.00;100.00
73941;BME280;62294;48.554;10.202;2023-06-14T02:25:41;92170.78;;;6.93;100.00
73941;BME280;62294;48.554;10.202;2023-06-14T02:28:09;92171.94;;;6.87;100.00
73941;BME280;62294;48.554;10.202;2023-06-14T02:30:36;92169.97;;;6.79;100.00
73941;BME280;62294;48.554;10.202;2023-06-14T02:33:02;92169.44;;;6.64;100.00
73941;BME280;62294;48.554;10.202;2023-06-14T02:35:30;92162.47;;;6.54;100.00
73941;BME280;62294;48.554;10.202;2023-06-14T02:37:56;92163.69;;;6.43;100.00
73941;BME280;62294;48.554;10.202;2023-06-14T02:40:23;92158.91;;;6.45;100.00
73941;BME280;62294;48.554;10.202;2023-06-14T02:42:50;92141.25;;;6.46;100.00
73941;BME280;62294;48.554;10.202;2023-06-14T02:45:17;92112.03;;;6.56;100.00
73941;BME280;62294;48.554;10.202;2023-06-14T02:47:43;92077.44;;;6.57;100.00
73941;BME280;62294;48.554;10.202;2023-06-14T02:50:10;92012.78;;;6.60;100.00
73941;BME280;62294;48.554;10.202;2023-06-14T02:52:37;91752.47;;;6.69;100.00
73941;BME280;62294;48.554;10.202;2023-06-14T02:55:04;91736.38;;;6.70;100.00
73941;BME280;62294;48.554;10.202;2023-06-14T02:57:31;91721.59;;;6.69;100.00
73941;BME280;62294;48.554;10.202;2023-06-14T02:59:57;91715.97;;;6.62;100.00
73941;BME280;62294;48.554;10.202;2023-06-14T03:02:24;91694.84;;;6.62;100.00
73941;BME280;62294;48.554;10.202;2023-06-14T03:04:51;91684.25;;;6.54;100.00
73941;BME280;62294;48.554;10.202;2023-06-14T03:07:17;91680.34;;;6.51;100.00
73941;BME280;62294;48.554;10.202;2023-06-14T03:09:48;91657.56;;;6.55;100.00
73941;BME280;62294;48.554;10.202;2023-06-14T03:12:15;91644.84;;;6.57;100.00
73941;BME280;62294;48.554;10.202;2023-06-14T03:14:42;91632.44;;;6.58;100.00
73941;BME280;62294;48.554;10.202;2023-06-14T03:17:09;91634.44;;;6.52;100.00
73941;BME280;62294;48.554;10.202;2023-06-14T03:19:37;91621.13;;;6.57;100.00
73941;BME280;62294;48.554;10.202;2023-06-14T03:22:04;91616.47;;;6.54;100.00
73941;BME280;62294;48.554;10.202;2023-06-14T03:24:31;91630.84;;;6.48;100.00
73941;BME280;62294;48.554;10.202;2023-06-14T03:27:04;91629.75;;;6.49;100.00
73941;BME280;62294;48.554;10.202;2023-06-14T03:29:30;91642.94;;;6.49;100.00
73941;BME280;62294;48.554;10.202;2023-06-14T03:32:01;91634.56;;;6.47;100.00
73941;BME280;62294;48.554;10.202;2023-06-14T03:34:28;91578.50;;;6.64;100.00
73941;BME280;62294;48.554;10.202;2023-06-14T03:36:54;91466.34;;;6.66;100.00
73941;BME280;62294;48.554;10.202;2023-06-14T03:39:21;91399.16;;;6.72;100.00
73941;BME280;62294;48.554;10.202;2023-06-14T03:41:47;91392.94;;;6.68;100.00
73941;BME280;62294;48.554;10.202;2023-06-14T03:44:16;91407.47;;;6.57;100.00
73941;BME280;62294;48.554;10.202;2023-06-14T03:46:45;91431.53;;;6.56;100.00
73941;BME280;62294;48.554;10.202;2023-06-14T03:49:12;91453.06;;;6.49;100.00
73941;BME280;62294;48.554;10.202;2023-06-14T03:51:39;91485.94;;;6.43;100.00
73941;BME280;62294;48.554;10.202;2023-06-14T03:54:06;91500.66;;;6.44;100.00
73941;BME280;62294;48.554;10.202;2023-06-14T03:56:53;91521.88;;;6.39;100.00
73941;BME280;62294;48.554;10.202;2023-06-14T03:59:20;91529.69;;;6.44;100.00
73941;BME280;62294;48.554;10.202;2023-06-14T04:01:46;91540.22;;;6.44;100.00
73941;BME280;62294;48.554;10.202;2023-06-14T04:04:13;91525.09;;;6.58;100.00
73941;BME280;62294;48.554;10.202;2023-06-14T04:06:40;91512.72;;;6.67;100.00
73941;BME280;62294;48.554;10.202;2023-06-14T04:09:07;91515.81;;;6.69;100.00
73941;BME280;62294;48.554;10.202;2023-06-14T04:11:33;91518.34;;;6.74;100.00
73941;BME280;62294;48.554;10.202;2023-06-14T04:14:02;91517.41;;;6.79;100.00
73941;BME280;62294;48.554;10.202;2023-06-14T04:16:29;91521.63;;;6.80;100.00
73941;BME280;62294;48.554;10.202;2023-06-14T04:18:55;91516.84;;;6.90;100.00
73941;BME280;62294;48.554;10.202;2023-06-14T04:21:24;91521.53;;;7.02;100.00
73941;BME280;62294;48.554;10.202;2023-06-14T04:23:52;91536.91;;;7.00;100.00
73941;BME280;62294;48.554;10.202;2023-06-14T04:26:19;91539.88;;;7.15;100.00
73941;BME280;62294;48.554;10.202;2023-06-14T04:28:50;91588.69;;;7.27;100.00
73941;BME280;62294;48.554;10.202;2023-06-14T04:31:17;91600.38;;;7.34;100.00
73941;BME280;62294;48.554;10.202;2023-06-14T04:33:45;91601.94;;;7.44;100.00
73941;BME280;62294;48.554;10.202;2023-06-14T04:36:13;91621.97;;;7.45;100.00
73941;BME280;62294;48.554;10.202;2023-06-14T04:38:39;91628.53;;;7.56;100.00
73941;BME280;62294;48.554;10.202;2023-06-14T04:41:07;91634.31;;;7.66;100.00
73941;BME280;62294;48.554;10.202;2023-06-14T04:43:38;91648.47;;;7.79;100.00
73941;BME280;62294;48.554;10.202;2023-06-14T04:46:06;91655.34;;;7.97;100.00
73941;BME280;62294;48.554;10.202;2023-06-14T04:48:40;91670.28;;;8.10;100.00
73941;BME280;62294;48.554;10.202;2023-06-14T04:51:09;91686.47;;;8.17;100.00
73941;BME280;62294;48.554;10.202;2023-06-14T04:53:36;91705.97;;;8.30;100.00
73941;BME280;62294;48.554;10.202;2023-06-14T04:56:04;91715.78;;;8.46;100.00
73941;BME280;62294;48.554;10.202;2023-06-14T04:58:30;91725.44;;;8.60;100.00
73941;BME280;62294;48.554;10.202;2023-06-14T05:00:58;91759.38;;;8.75;100.00
73941;BME280;62294;48.554;10.202;2023-06-14T05:03:29;91775.28;;;8.92;100.00
73941;BME280;62294;48.554;10.202;2023-06-14T05:05:57;91791.47;;;9.07;100.00
73941;BME280;62294;48.554;10.202;2023-06-14T05:08:23;91799.41;;;9.24;100.00
73941;BME280;62294;48.554;10.202;2023-06-14T05:10:50;91826.50;;;9.39;100.00
73941;BME280;62294;48.554;10.202;2023-06-14T05:13:17;91852.06;;;9.60;100.00
73941;BME280;62294;48.554;10.202;2023-06-14T05:15:44;91878.84;;;9.76;100.00
73941;BME280;62294;48.554;10.202;2023-06-14T05:18:11;91901.72;;;9.97;100.00
73941;BME280;62294;48.554;10.202;2023-06-14T05:20:40;91944.94;;;9.98;100.00
73941;BME280;62294;48.554;10.202;2023-06-14T05:23:08;91995.97;;;10.04;100.00
73941;BME280;62294;48.554;10.202;2023-06-14T05:25:45;92001.91;;;10.35;100.00
73941;BME280;62294;48.554;10.202;2023-06-14T05:28:11;91996.16;;;10.79;100.00
73941;BME280;62294;48.554;10.202;2023-06-14T05:30:38;91943.84;;;11.59;100.00
73941;BME280;62294;48.554;10.202;2023-06-14T05:33:08;91806.50;;;13.44;100.00
73941;BME280;62294;48.554;10.202;2023-06-14T05:35:35;91796.00;;;14.84;100.00
73941;BME280;62294;48.554;10.202;2023-06-14T05:38:02;91861.72;;;16.70;100.00
73941;BME280;62294;48.554;10.202;2023-06-14T05:40:28;92181.16;;;18.28;100.00
73941;BME280;62294;48.554;10.202;2023-06-14T05:42:55;92649.13;;;19.08;100.00
73941;BME280;62294;48.554;10.202;2023-06-14T05:45:21;93045.91;;;20.29;100.00
73941;BME280;62294;48.554;10.202;2023-06-14T05:47:48;93619.41;;;21.09;100.00
73941;BME280;62294;48.554;10.202;2023-06-14T05:50:15;94132.59;;;21.75;100.00
73941;BME280;62294;48.554;10.202;2023-06-14T05:52:41;94430.97;;;22.49;100.00
73941;BME280;62294;48.554;10.202;2023-06-14T05:55:08;94667.91;;;23.05;100.00
73941;BME280;62294;48.554;10.202;2023-06-14T05:57:35;94819.91;;;22.92;100.00
73941;BME280;62294;48.554;10.202;2023-06-14T06:00:02;94629.72;;;23.40;100.00
73941;BME280;62294;48.554;10.202;2023-06-14T06:02:36;94391.66;;;23.57;100.00
73941;BME280;62294;48.554;10.202;2023-06-14T06:05:03;94509.88;;;23.58;100.00
73941;BME280;62294;48.554;10.202;2023-06-14T06:07:29;94368.19;;;22.35;100.00
73941;BME280;62294;48.554;10.202;2023-06-14T06:09:56;95511.75;;;22.43;100.00
73941;BME280;62294;48.554;10.202;2023-06-14T06:12:23;95525.59;;;19.61;100.00
73941;BME280;62294;48.554;10.202;2023-06-14T06:14:49;95510.03;;;19.77;100.00
73941;BME280;62294;48.554;10.202;2023-06-14T06:17:16;95504.16;;;19.94;100.00
73941;BME280;62294;48.554;10.202;2023-06-14T06:19:43;95502.97;;;20.00;100.00
73941;BME280;62294;48.554;10.202;2023-06-14T06:22:09;95513.91;;;19.90;100.00
73941;BME280;62294;48.554;10.202;2023-06-14T06:24:36;95517.34;;;21.15;100.00
73941;BME280;62294;48.554;10.202;2023-06-14T06:27:03;95526.28;;;21.30;100.00
73941;BME280;62294;48.554;10.202;2023-06-14T06:29:30;95529.06;;;22.69;100.00
73941;BME280;62294;48.554;10.202;2023-06-14T06:31:56;95546.84;;;22.84;100.00
73941;BME280;62294;48.554;10.202;2023-06-14T06:34:23;95539.44;;;23.90;100.00
73941;BME280;62294;48.554;10.202;2023-06-14T06:36:50;95532.72;;;24.87;100.00
73941;BME280;62294;48.554;10.202;2023-06-14T06:39:17;95527.44;;;24.47;100.00
73941;BME280;62294;48.554;10.202;2023-06-14T06:41:43;95535.81;;;21.68;100.00
73941;BME280;62294;48.554;10.202;2023-06-14T06:44:10;95546.44;;;21.78;100.00
73941;BME280;62294;48.554;10.202;2023-06-14T06:46:37;95533.63;;;23.35;100.00
73941;BME280;62294;48.554;10.202;2023-06-14T06:49:07;95540.81;;;23.09;100.00
73941;BME280;62294;48.554;10.202;2023-06-14T06:51:35;95543.56;;;23.48;100.00
73941;BME280;62294;48.554;10.202;2023-06-14T06:54:03;95542.31;;;25.65;100.00
73941;BME280;62294;48.554;10.202;2023-06-14T06:56:29;95548.34;;;26.08;100.00
73941;BME280;62294;48.554;10.202;2023-06-14T06:58:57;95547.03;;;25.38;100.00
73941;BME280;62294;48.554;10.202;2023-06-14T07:01:24;95554.34;;;25.64;100.00
73941;BME280;62294;48.554;10.202;2023-06-14T07:03:51;95546.34;;;26.76;100.00
73941;BME280;62294;48.554;10.202;2023-06-14T07:06:18;95550.16;;;27.16;100.00
73941;BME280;62294;48.554;10.202;2023-06-14T07:08:45;95540.06;;;26.54;100.00
73941;BME280;62294;48.554;10.202;2023-06-14T07:11:14;95548.38;;;26.37;100.00
73941;BME280;62294;48.554;10.202;2023-06-14T07:13:41;95548.09;;;26.01;100.00
73941;BME280;62294;48.554;10.202;2023-06-14T07:16:07;95556.25;;;26.01;100.00
73941;BME280;62294;48.554;10.202;2023-06-14T07:18:34;95546.84;;;26.48;100.00
73941;BME280;62294;48.554;10.202;2023-06-14T07:21:01;95552.63;;;27.09;100.00
73941;BME280;62294;48.554;10.202;2023-06-14T07:23:28;95560.00;;;27.29;100.00
73941;BME280;62294;48.554;10.202;2023-06-14T07:25:55;95561.16;;;27.85;100.00
73941;BME280;62294;48.554;10.202;2023-06-14T07:28:21;95566.25;;;27.86;100.00
73941;BME280;62294;48.554;10.202;2023-06-14T07:30:48;95574.44;;;26.67;100.00
73941;BME280;62294;48.554;10.202;2023-06-14T07:33:14;95580.41;;;25.73;100.00
73941;BME280;62294;48.554;10.202;2023-06-14T07:35:41;95591.50;;;26.35;100.00
73941;BME280;62294;48.554;10.202;2023-06-14T07:38:08;95578.53;;;27.03;100.00
73941;BME280;62294;48.554;10.202;2023-06-14T07:40:34;95587.47;;;26.41;100.00
73941;BME280;62294;48.554;10.202;2023-06-14T07:43:01;95592.75;;;25.71;100.00
73941;BME280;62294;48.554;10.202;2023-06-14T07:45:28;95585.00;;;27.31;100.00
73941;BME280;62294;48.554;10.202;2023-06-14T07:47:55;95574.44;;;27.86;100.00
73941;BME280;62294;48.554;10.202;2023-06-14T07:50:21;95585.16;;;26.72;100.00
73941;BME280;62294;48.554;10.202;2023-06-14T07:52:48;95573.91;;;27.81;100.00
73941;BME280;62294;48.554;10.202;2023-06-14T07:55:15;95581.00;;;27.49;100.00
73941;BME280;62294;48.554;10.202;2023-06-14T07:57:42;95586.25;;;27.66;100.00
73941;BME280;62294;48.554;10.202;2023-06-14T08:00:10;95590.75;;;26.55;100.00
73941;BME280;62294;48.554;10.202;2023-06-14T08:02:41;95588.47;;;27.97;100.00
73941;BME280;62294;48.554;10.202;2023-06-14T08:05:09;95579.91;;;28.95;100.00
73941;BME280;62294;48.554;10.202;2023-06-14T08:07:38;95577.09;;;29.07;100.00
73941;BME280;62294;48.554;10.202;2023-06-14T08:10:06;95594.66;;;26.66;100.00
73941;BME280;62294;48.554;10.202;2023-06-14T08:12:33;95599.22;;;25.23;100.00
73941;BME280;62294;48.554;10.202;2023-06-14T08:15:01;95591.28;;;26.69;100.00
73941;BME280;62294;48.554;10.202;2023-06-14T08:17:34;95599.13;;;26.13;100.00
73941;BME280;62294;48.554;10.202;2023-06-14T08:20:01;95584.25;;;27.10;100.00
73941;BME280;62294;48.554;10.202;2023-06-14T08:22:27;95589.91;;;27.58;100.00
73941;BME280;62294;48.554;10.202;2023-06-14T08:24:58;95586.69;;;28.25;100.00
73941;BME280;62294;48.554;10.202;2023-06-14T08:27:24;95600.66;;;24.78;100.00
73941;BME280;62294;48.554;10.202;2023-06-14T08:29:53;95583.81;;;26.37;100.00
73941;BME280;62294;48.554;10.202;2023-06-14T08:32:19;95585.81;;;27.11;100.00
73941;BME280;62294;48.554;10.202;2023-06-14T08:34:46;95593.28;;;29.12;100.00
73941;BME280;62294;48.554;10.202;2023-06-14T08:37:29;95581.81;;;28.95;100.00
73941;BME280;62294;48.554;10.202;2023-06-14T08:39:56;95589.31;;;28.09;100.00
73941;BME280;62294;48.554;10.202;2023-06-14T08:42:24;95592.09;;;28.98;100.00
73941;BME280;62294;48.554;10.202;2023-06-14T08:44:52;95588.84;;;28.68;100.00
73941;BME280;62294;48.554;10.202;2023-06-14T08:47:19;95584.53;;;29.34;100.00
73941;BME280;62294;48.554;10.202;2023-06-14T08:49:47;95582.03;;;30.16;100.00
73941;BME280;62294;48.554;10.202;2023-06-14T08:52:16;95593.44;;;28.92;100.00
73941;BME280;62294;48.554;10.202;2023-06-14T08:54:46;95592.09;;;28.98;100.00
73941;BME280;62294;48.554;10.202;2023-06-14T08:57:15;95589.16;;;29.89;100.00
73941;BME280;62294;48.554;10.202;2023-06-14T08:59:47;95593.69;;;29.82;100.00
73941;BME280;62294;48.554;10.202;2023-06-14T09:02:15;95580.47;;;31.38;100.00
73941;BME280;62294;48.554;10.202;2023-06-14T09:04:44;95582.13;;;31.24;100.00
73941;BME280;62294;48.554;10.202;2023-06-14T09:07:11;95595.19;;;30.26;100.00
73941;BME280;62294;48.554;10.202;2023-06-14T09:09:40;95590.41;;;30.54;100.00
73941;BME280;62294;48.554;10.202;2023-06-14T09:12:27;95600.06;;;30.48;100.00
73941;BME280;62294;48.554;10.202;2023-06-14T09:14:55;95594.78;;;29.37;100.00
73941;BME280;62294;48.554;10.202;2023-06-14T09:17:22;95602.66;;;29.11;100.00
73941;BME280;62294;48.554;10.202;2023-06-14T09:19:49;95616.59;;;28.94;100.00
73941;BME280;62294;48.554;10.202;2023-06-14T09:22:16;95609.41;;;26.95;100.00
73941;BME280;62294;48.554;10.202;2023-06-14T09:24:43;95598.09;;;29.43;100.00
73941;BME280;62294;48.554;10.202;2023-06-14T09:27:15;95606.03;;;28.68;100.00
73941;BME280;62294;48.554;10.202;2023-06-14T09:29:42;95608.03;;;30.38;100.00
73941;BME280;62294;48.554;10.202;2023-06-14T09:32:09;95616.56;;;29.18;100.00
73941;BME280;62294;48.554;10.202;2023-06-14T09:34:35;95625.41;;;28.15;100.00
73941;BME280;62294;48.554;10.202;2023-06-14T09:37:03;95628.25;;;28.31;100.00
73941;BME280;62294;48.554;10.202;2023-06-14T09:39:29;95625.34;;;27.25;100.00
73941;BME280;62294;48.554;10.202;2023-06-14T09:41:56;95625.88;;;28.29;100.00
73941;BME280;62294;48.554;10.202;2023-06-14T09:44:23;95619.03;;;29.51;100.00
73941;BME280;62294;48.554;10.202;2023-06-14T09:46:56;95624.19;;;29.01;100.00
73941;BME280;62294;48.554;10.202;2023-06-14T09:49:22;95628.50;;;28.74;100.00
73941;BME280;62294;48.554;10.202;2023-06-14T09:51:52;95627.59;;;28.34;100.00
73941;BME280;62294;48.554;10.202;2023-06-14T09:54:22;95625.22;;;29.08;100.00
73941;BME280;62294;48.554;10.202;2023-06-14T09:56:51;95621.13;;;29.42;100.00
73941;BME280;62294;48.554;10.202;2023-06-14T09:59:26;95638.53;;;25.60;100.00
73941;BME280;62294;48.554;10.202;2023-06-14T10:01:58;95636.16;;;27.01;100.00
73941;BME280;62294;48.554;10.202;2023-06-14T10:04:27;95638.81;;;24.39;100.00
73941;BME280;62294;48.554;10.202;2023-06-14T10:06:57;95628.97;;;26.97;100.00
73941;BME280;62294;48.554;10.202;2023-06-14T10:09:25;95634.53;;;26.21;100.00
73941;BME280;62294;48.554;10.202;2023-06-14T10:11:52;95627.31;;;28.02;100.00
73941;BME280;62294;48.554;10.202;2023-06-14T10:14:19;95618.13;;;29.19;100.00
73941;BME280;62294;48.554;10.202;2023-06-14T10:17:08;95614.38;;;30.10;100.00
73941;BME280;62294;48.554;10.202;2023-06-14T10:19:50;95624.19;;;29.01;100.00
73941;BME280;62294;48.554;10.202;2023-06-14T10:22:26;95638.69;;;25.64;100.00
73941;BME280;62294;48.554;10.202;2023-06-14T10:24:56;95635.47;;;27.04;100.00
73941;BME280;62294;48.554;10.202;2023-06-14T10:27:22;95627.34;;;28.51;100.00
73941;BME280;62294;48.554;10.202;2023-06-14T10:32:27;95611.09;;;29.06;100.00
73941;BME280;62294;48.554;10.202;2023-06-14T10:35:00;95607.31;;;30.09;100.00
73941;BME280;62294;48.554;10.202;2023-06-14T10:37:28;95614.19;;;29.88;100.00
73941;BME280;62294;48.554;10.202;2023-06-14T10:39:54;95605.88;;;30.31;100.00
73941;BME280;62294;48.554;10.202;2023-06-14T10:42:21;95602.44;;;30.03;100.00
73941;BME280;62294;48.554;10.202;2023-06-14T10:44:50;95619.47;;;29.25;100.00
73941;BME280;62294;48.554;10.202;2023-06-14T10:49:52;95607.63;;;29.77;100.00
73941;BME280;62294;48.554;10.202;2023-06-14T10:52:25;95606.75;;;29.45;100.00
73941;BME280;62294;48.554;10.202;2023-06-14T10:55:11;95618.41;;;27.81;100.00
73941;BME280;62294;48.554;10.202;2023-06-14T10:57:50;95627.19;;;26.13;100.00
73941;BME280;62294;48.554;10.202;2023-06-14T11:00:23;95613.16;;;28.97;100.00
73941;BME280;62294;48.554;10.202;2023-06-14T11:05:27;95626.69;;;27.19;100.00
73941;BME280;62294;48.554;10.202;2023-06-14T11:08:18;95627.53;;;26.03;100.00
73941;BME280;62294;48.554;10.202;2023-06-14T11:10:51;95616.44;;;25.70;100.00
73941;BME280;62294;48.554;10.202;2023-06-14T11:13:24;95620.34;;;25.90;100.00
73941;BME280;62294;48.554;10.202;2023-06-14T11:15:52;95608.69;;;27.84;100.00
73941;BME280;62294;48.554;10.202;2023-06-14T11:18:24;95606.81;;;27.96;100.00
73941;BME280;62294;48.554;10.202;2023-06-14T11:20:51;95606.41;;;29.46;100.00
73941;BME280;62294;48.554;10.202;2023-06-14T11:23:18;95604.84;;;29.89;100.00
73941;BME280;62294;48.554;10.202;2023-06-14T11:25:50;95614.34;;;28.84;100.00
73941;BME280;62294;48.554;10.202;2023-06-14T11:28:17;95625.03;;;26.56;100.00
73941;BME280;62294;48.554;10.202;2023-06-14T11:30:46;95625.63;;;25.14;100.00
73941;BME280;62294;48.554;10.202;2023-06-14T11:33:17;95614.56;;;24.68;100.00
73941;BME280;62294;48.554;10.202;2023-06-14T11:35:45;95626.91;;;24.91;100.00
73941;BME280;62294;48.554;10.202;2023-06-14T11:38:12;95624.88;;;23.92;100.00
73941;BME280;62294;48.554;10.202;2023-06-14T11:40:39;95621.03;;;24.33;100.00
73941;BME280;62294;48.554;10.202;2023-06-14T11:43:05;95621.38;;;24.48;100.00
73941;BME280;62294;48.554;10.202;2023-06-14T11:45:32;95599.94;;;26.42;100.00
73941;BME280;62294;48.554;10.202;2023-06-14T11:47:59;95595.34;;;28.03;100.00
73941;BME280;62294;48.554;10.202;2023-06-14T11:50:27;95593.44;;;28.16;100.00
73941;BME280;62294;48.554;10.202;2023-06-14T11:52:55;95584.44;;;27.70;100.00
73941;BME280;62294;48.554;10.202;2023-06-14T11:55:22;95587.16;;;29.59;100.00
73941;BME280;62294;48.554;10.202;2023-06-14T11:57:50;95594.53;;;28.51;100.00
73941;BME280;62294;48.554;10.202;2023-06-14T12:00:17;95606.69;;;26.07;100.00
73941;BME280;62294;48.554;10.202;2023-06-14T12:02:52;95604.31;;;24.65;100.00
73941;BME280;62294;48.554;10.202;2023-06-14T12:05:21;95610.69;;;25.37;100.00
73941;BME280;62294;48.554;10.202;2023-06-14T12:07:48;95594.31;;;27.30;100.00
73941;BME280;62294;48.554;10.202;2023-06-14T12:10:16;95589.28;;;29.10;100.00
73941;BME280;62294;48.554;10.202;2023-06-14T12:12:43;95581.50;;;29.95;100.00
73941;BME280;62294;48.554;10.202;2023-06-14T12:15:10;95569.34;;;31.31;94.02
73941;BME280;62294;48.554;10.202;2023-06-14T12:17:42;95574.88;;;30.77;100.00
73941;BME280;62294;48.554;10.202;2023-06-14T12:20:13;95592.50;;;28.11;100.00
73941;BME280;62294;48.554;10.202;2023-06-14T12:22:55;95580.06;;;29.42;100.00
73941;BME280;62294;48.554;10.202;2023-06-14T12:25:27;95590.28;;;29.73;100.00
73941;BME280;62294;48.554;10.202;2023-06-14T12:27:54;95596.25;;;28.67;100.00
73941;BME280;62294;48.554;10.202;2023-06-14T12:30:21;95612.66;;;25.46;100.00
73941;BME280;62294;48.554;10.202;2023-06-14T12:32:48;95609.13;;;25.19;100.00
73941;BME280;62294;48.554;10.202;2023-06-14T12:35:15;95611.03;;;25.36;100.00
73941;BME280;62294;48.554;10.202;2023-06-14T12:37:42;95604.44;;;26.09;100.00
73941;BME280;62294;48.554;10.202;2023-06-14T12:40:09;95613.25;;;25.60;100.00
73941;BME280;62294;48.554;10.202;2023-06-14T12:42:37;95617.94;;;25.51;100.00
73941;BME280;62294;48.554;10.202;2023-06-14T12:45:04;95617.59;;;25.26;100.00
73941;BME280;62294;48.554;10.202;2023-06-14T12:47:31;95622.66;;;24.34;100.00
73941;BME280;62294;48.554;10.202;2023-06-14T12:49:57;95624.28;;;24.43;100.00
73941;BME280;62294;48.554;10.202;2023-06-14T12:52:24;95621.09;;;24.67;100.00
73941;BME280;62294;48.554;10.202;2023-06-14T12:54:50;95624.25;;;23.34;100.00
73941;BME280;62294;48.554;10.202;2023-06-14T12:57:17;95623.31;;;23.69;100.00
73941;BME280;62294;48.554;10.202;2023-06-14T12:59:43;95633.59;;;24.12;100.00
73941;BME280;62294;48.554;10.202;2023-06-14T13:02:18;95616.31;;;24.73;100.00